sensor_id;sensor_type;location;lat;lon;timestamp;P1;durP1;ratioP1;P2;durP2;ratioP2
35225;SDS011;21813;49.686;21.766;2023-11-21T00:01:31;7.40;;;4.93;;
35225;SDS011;21813;49.686;21.766;2023-11-21T00:04:17;7.50;;;4.70;;
35225;SDS011;21813;49.686;21.766;2023-11-21T00:06:42;8.85;;;5.70;;
35225;SDS011;21813;49.686;21.766;2023-11-21T00:09:09;9.82;;;5.85;;
35225;SDS011;21813;49.686;21.766;2023-11-21T00:11:43;6.50;;;5.13;;
35225;SDS011;21813;49.686;21.766;2023-11-21T00:14:15;7.63;;;5.15;;
35225;SDS011;21813;49.686;21.766;2023-11-21T00:16:41;8.23;;;4.82;;
35225;SDS011;21813;49.686;21.766;2023-11-21T00:22:34;7.10;;;5.20;;
35225;SDS011;21813;49.686;21.766;2023-11-21T00:25:10;7.82;;;4.80;;
35225;SDS011;21813;49.686;21.766;2023-11-21T00:30:25;6.47;;;5.13;;
35225;SDS011;21813;49.686;21.766;2023-11-21T00:32:56;5.63;;;4.85;;
35225;SDS011;21813;49.686;21.766;2023-11-21T00:35:27;5.25;;;4.50;;
35225;SDS011;21813;49.686;21.766;2023-11-21T00:38:01;6.03;;;4.28;;
35225;SDS011;21813;49.686;21.766;2023-11-21T00:40:28;5.53;;;4.70;;
35225;SDS011;21813;49.686;21.766;2023-11-21T00:42:55;8.07;;;4.53;;
35225;SDS011;21813;49.686;21.766;2023-11-21T00:45:41;6.15;;;4.55;;
35225;SDS011;21813;49.686;21.766;2023-11-21T00:51:57;5.88;;;4.43;;
35225;SDS011;21813;49.686;21.766;2023-11-21T00:54:36;6.07;;;4.90;;
35225;SDS011;21813;49.686;21.766;2023-11-21T00:57:02;6.68;;;5.03;;
35225;SDS011;21813;49.686;21.766;2023-11-21T00:59:50;6.80;;;4.97;;
35225;SDS011;21813;49.686;21.766;2023-11-21T01:02:44;5.70;;;4.82;;
35225;SDS011;21813;49.686;21.766;2023-11-21T01:05:21;5.80;;;5.20;;
35225;SDS011;21813;49.686;21.766;2023-11-21T01:07:46;7.90;;;5.22;;
35225;SDS011;21813;49.686;21.766;2023-11-21T01:10:14;7.05;;;5.50;;
35225;SDS011;21813;49.686;21.766;2023-11-21T01:12:41;5.45;;;4.50;;
35225;SDS011;21813;49.686;21.766;2023-11-21T01:15:18;6.82;;;5.18;;
35225;SDS011;21813;49.686;21.766;2023-11-21T01:17:47;5.95;;;5.03;;
35225;SDS011;21813;49.686;21.766;2023-11-21T01:20:13;7.93;;;5.38;;
35225;SDS011;21813;49.686;21.766;2023-11-21T01:22:42;6.00;;;5.20;;
35225;SDS011;21813;49.686;21.766;2023-11-21T01:25:14;8.48;;;5.50;;
35225;SDS011;21813;49.686;21.766;2023-11-21T01:27:47;6.25;;;4.85;;
35225;SDS011;21813;49.686;21.766;2023-11-21T01:34:06;7.00;;;5.00;;
35225;SDS011;21813;49.686;21.766;2023-11-21T01:36:56;6.72;;;5.15;;
35225;SDS011;21813;49.686;21.766;2023-11-21T01:39:34;9.05;;;5.75;;
35225;SDS011;21813;49.686;21.766;2023-11-21T01:42:01;7.03;;;5.20;;
35225;SDS011;21813;49.686;21.766;2023-11-21T01:44:45;5.88;;;4.90;;
35225;SDS011;21813;49.686;21.766;2023-11-21T01:47:15;7.15;;;5.55;;
35225;SDS011;21813;49.686;21.766;2023-11-21T01:49:49;8.25;;;5.00;;
35225;SDS011;21813;49.686;21.766;2023-11-21T01:52:27;7.30;;;5.55;;
35225;SDS011;21813;49.686;21.766;2023-11-21T01:57:32;5.72;;;4.75;;
35225;SDS011;21813;49.686;21.766;2023-11-21T02:13:25;7.13;;;5.30;;
35225;SDS011;21813;49.686;21.766;2023-11-21T02:16:01;6.85;;;5.22;;
35225;SDS011;21813;49.686;21.766;2023-11-21T02:18:33;6.82;;;5.40;;
35225;SDS011;21813;49.686;21.766;2023-11-21T02:21:14;6.00;;;5.30;;
35225;SDS011;21813;49.686;21.766;2023-11-21T02:23:51;7.35;;;5.78;;
35225;SDS011;21813;49.686;21.766;2023-11-21T02:26:25;5.95;;;5.30;;
35225;SDS011;21813;49.686;21.766;2023-11-21T02:29:09;6.32;;;4.65;;
35225;SDS011;21813;49.686;21.766;2023-11-21T02:32:01;6.38;;;5.10;;
35225;SDS011;21813;49.686;21.766;2023-11-21T02:34:42;6.68;;;4.78;;
35225;SDS011;21813;49.686;21.766;2023-11-21T02:37:16;5.95;;;5.20;;
35225;SDS011;21813;49.686;21.766;2023-11-21T02:43:42;8.60;;;5.18;;
35225;SDS011;21813;49.686;21.766;2023-11-21T02:46:26;5.47;;;4.63;;
35225;SDS011;21813;49.686;21.766;2023-11-21T02:49:03;6.32;;;5.50;;
35225;SDS011;21813;49.686;21.766;2023-11-21T02:51:53;7.22;;;5.43;;
35225;SDS011;21813;49.686;21.766;2023-11-21T02:55:17;6.05;;;4.32;;
35225;SDS011;21813;49.686;21.766;2023-11-21T03:01:35;6.40;;;4.70;;
35225;SDS011;21813;49.686;21.766;2023-11-21T03:04:15;7.80;;;5.85;;
35225;SDS011;21813;49.686;21.766;2023-11-21T03:07:09;7.43;;;5.03;;
35225;SDS011;21813;49.686;21.766;2023-11-21T03:16:47;6.03;;;4.60;;
35225;SDS011;21813;49.686;21.766;2023-11-21T03:20:04;7.18;;;4.63;;
35225;SDS011;21813;49.686;21.766;2023-11-21T03:22:54;6.38;;;5.03;;
35225;SDS011;21813;49.686;21.766;2023-11-21T03:25:30;5.72;;;4.45;;
35225;SDS011;21813;49.686;21.766;2023-11-21T03:28:05;4.43;;;3.97;;
35225;SDS011;21813;49.686;21.766;2023-11-21T03:30:33;4.47;;;3.67;;
35225;SDS011;21813;49.686;21.766;2023-11-21T03:33:13;5.30;;;3.95;;
35225;SDS011;21813;49.686;21.766;2023-11-21T03:36:13;4.30;;;3.90;;
35225;SDS011;21813;49.686;21.766;2023-11-21T03:39:31;3.75;;;3.45;;
35225;SDS011;21813;49.686;21.766;2023-11-21T03:41:56;3.60;;;3.20;;
35225;SDS011;21813;49.686;21.766;2023-11-21T03:44:31;4.95;;;4.35;;
35225;SDS011;21813;49.686;21.766;2023-11-21T04:00:49;3.42;;;3.13;;
35225;SDS011;21813;49.686;21.766;2023-11-21T04:06:51;3.90;;;3.60;;
35225;SDS011;21813;49.686;21.766;2023-11-21T04:09:41;3.95;;;3.58;;
35225;SDS011;21813;49.686;21.766;2023-11-21T04:12:16;3.67;;;3.30;;
35225;SDS011;21813;49.686;21.766;2023-11-21T04:14:42;3.13;;;2.83;;
35225;SDS011;21813;49.686;21.766;2023-11-21T04:17:09;3.53;;;3.20;;
35225;SDS011;21813;49.686;21.766;2023-11-21T04:19:37;3.35;;;3.05;;
35225;SDS011;21813;49.686;21.766;2023-11-21T04:22:12;3.78;;;3.47;;
35225;SDS011;21813;49.686;21.766;2023-11-21T04:24:38;4.72;;;3.75;;
35225;SDS011;21813;49.686;21.766;2023-11-21T04:27:19;4.32;;;3.55;;
35225;SDS011;21813;49.686;21.766;2023-11-21T04:33:13;2.97;;;2.78;;
35225;SDS011;21813;49.686;21.766;2023-11-21T04:35:59;3.38;;;3.08;;
35225;SDS011;21813;49.686;21.766;2023-11-21T04:41:01;3.30;;;2.92;;
35225;SDS011;21813;49.686;21.766;2023-11-21T04:43:46;3.83;;;3.10;;
35225;SDS011;21813;49.686;21.766;2023-11-21T04:46:12;2.97;;;2.78;;
35225;SDS011;21813;49.686;21.766;2023-11-21T04:48:45;5.45;;;2.90;;
35225;SDS011;21813;49.686;21.766;2023-11-21T04:51:17;3.08;;;2.78;;
35225;SDS011;21813;49.686;21.766;2023-11-21T04:57:00;3.10;;;2.75;;
35225;SDS011;21813;49.686;21.766;2023-11-21T04:59:57;3.58;;;2.80;;
35225;SDS011;21813;49.686;21.766;2023-11-21T05:02:28;3.72;;;3.33;;
35225;SDS011;21813;49.686;21.766;2023-11-21T05:04:56;5.15;;;4.18;;
35225;SDS011;21813;49.686;21.766;2023-11-21T05:07:22;5.65;;;5.00;;
35225;SDS011;21813;49.686;21.766;2023-11-21T05:16:32;3.60;;;3.30;;
35225;SDS011;21813;49.686;21.766;2023-11-21T05:19:51;4.28;;;3.53;;
35225;SDS011;21813;49.686;21.766;2023-11-21T05:28:54;3.45;;;3.10;;
35225;SDS011;21813;49.686;21.766;2023-11-21T05:32:46;4.80;;;3.70;;
35225;SDS011;21813;49.686;21.766;2023-11-21T05:35:24;6.35;;;4.65;;
35225;SDS011;21813;49.686;21.766;2023-11-21T05:41:17;6.53;;;4.07;;
35225;SDS011;21813;49.686;21.766;2023-11-21T05:43:45;6.35;;;3.60;;
35225;SDS011;21813;49.686;21.766;2023-11-21T05:49:01;3.65;;;3.13;;
35225;SDS011;21813;49.686;21.766;2023-11-21T05:51:40;4.00;;;3.42;;
35225;SDS011;21813;49.686;21.766;2023-11-21T05:56:46;5.30;;;4.25;;
35225;SDS011;21813;49.686;21.766;2023-11-21T06:08:22;8.27;;;4.93;;
35225;SDS011;21813;49.686;21.766;2023-11-21T06:10:50;7.47;;;5.25;;
35225;SDS011;21813;49.686;21.766;2023-11-21T06:16:27;11.27;;;7.15;;
35225;SDS011;21813;49.686;21.766;2023-11-21T06:18:53;24.67;;;12.73;;
35225;SDS011;21813;49.686;21.766;2023-11-21T06:21:33;11.30;;;7.70;;
35225;SDS011;21813;49.686;21.766;2023-11-21T06:24:17;14.48;;;8.23;;
35225;SDS011;21813;49.686;21.766;2023-11-21T06:26:49;12.90;;;8.15;;
35225;SDS011;21813;49.686;21.766;2023-11-21T06:29:16;11.10;;;7.32;;
35225;SDS011;21813;49.686;21.766;2023-11-21T06:31:42;10.15;;;7.05;;
35225;SDS011;21813;49.686;21.766;2023-11-21T06:34:10;8.23;;;6.28;;
35225;SDS011;21813;49.686;21.766;2023-11-21T06:36:36;9.52;;;6.65;;
35225;SDS011;21813;49.686;21.766;2023-11-21T06:39:02;6.63;;;5.03;;
35225;SDS011;21813;49.686;21.766;2023-11-21T06:41:28;7.20;;;5.63;;
35225;SDS011;21813;49.686;21.766;2023-11-21T06:44:09;8.63;;;5.93;;
35225;SDS011;21813;49.686;21.766;2023-11-21T06:46:34;6.77;;;5.37;;
35225;SDS011;21813;49.686;21.766;2023-11-21T06:49:01;7.65;;;5.70;;
35225;SDS011;21813;49.686;21.766;2023-11-21T06:51:27;8.18;;;6.22;;
35225;SDS011;21813;49.686;21.766;2023-11-21T06:53:54;9.95;;;6.45;;
35225;SDS011;21813;49.686;21.766;2023-11-21T06:56:20;9.00;;;6.57;;
35225;SDS011;21813;49.686;21.766;2023-11-21T06:58:46;10.60;;;6.63;;
35225;SDS011;21813;49.686;21.766;2023-11-21T07:01:13;15.55;;;9.80;;
35225;SDS011;21813;49.686;21.766;2023-11-21T07:03:39;14.05;;;9.35;;
35225;SDS011;21813;49.686;21.766;2023-11-21T07:06:06;14.57;;;10.40;;
35225;SDS011;21813;49.686;21.766;2023-11-21T07:08:33;14.30;;;9.15;;
35225;SDS011;21813;49.686;21.766;2023-11-21T07:10:58;9.43;;;7.05;;
35225;SDS011;21813;49.686;21.766;2023-11-21T07:13:24;11.85;;;5.68;;
35225;SDS011;21813;49.686;21.766;2023-11-21T07:15:51;6.28;;;5.00;;
35225;SDS011;21813;49.686;21.766;2023-11-21T07:18:17;7.70;;;5.07;;
35225;SDS011;21813;49.686;21.766;2023-11-21T07:20:43;6.72;;;4.85;;
35225;SDS011;21813;49.686;21.766;2023-11-21T07:23:10;7.93;;;6.50;;
35225;SDS011;21813;49.686;21.766;2023-11-21T07:25:39;10.25;;;7.10;;
35225;SDS011;21813;49.686;21.766;2023-11-21T07:28:09;6.30;;;4.80;;
35225;SDS011;21813;49.686;21.766;2023-11-21T07:30:35;12.18;;;5.63;;
35225;SDS011;21813;49.686;21.766;2023-11-21T07:33:02;7.78;;;5.80;;
35225;SDS011;21813;49.686;21.766;2023-11-21T07:35:27;10.93;;;5.68;;
35225;SDS011;21813;49.686;21.766;2023-11-21T07:38:15;10.63;;;7.00;;
35225;SDS011;21813;49.686;21.766;2023-11-21T07:40:43;6.68;;;5.50;;
35225;SDS011;21813;49.686;21.766;2023-11-21T07:43:08;8.30;;;6.35;;
35225;SDS011;21813;49.686;21.766;2023-11-21T07:45:36;8.48;;;6.18;;
35225;SDS011;21813;49.686;21.766;2023-11-21T07:48:02;8.07;;;6.38;;
35225;SDS011;21813;49.686;21.766;2023-11-21T07:50:30;7.95;;;5.25;;
35225;SDS011;21813;49.686;21.766;2023-11-21T07:52:57;6.88;;;5.63;;
35225;SDS011;21813;49.686;21.766;2023-11-21T07:55:24;8.13;;;5.93;;
35225;SDS011;21813;49.686;21.766;2023-11-21T07:57:50;8.68;;;6.07;;
35225;SDS011;21813;49.686;21.766;2023-11-21T08:00:17;10.35;;;6.07;;
35225;SDS011;21813;49.686;21.766;2023-11-21T08:02:43;8.82;;;5.68;;
35225;SDS011;21813;49.686;21.766;2023-11-21T08:05:19;8.35;;;5.60;;
35225;SDS011;21813;49.686;21.766;2023-11-21T08:07:44;6.95;;;5.78;;
35225;SDS011;21813;49.686;21.766;2023-11-21T08:10:22;7.90;;;5.97;;
35225;SDS011;21813;49.686;21.766;2023-11-21T08:12:48;8.60;;;4.80;;
35225;SDS011;21813;49.686;21.766;2023-11-21T08:15:17;7.40;;;5.03;;
35225;SDS011;21813;49.686;21.766;2023-11-21T08:17:43;6.10;;;4.90;;
35225;SDS011;21813;49.686;21.766;2023-11-21T08:20:10;5.97;;;5.18;;
35225;SDS011;21813;49.686;21.766;2023-11-21T08:22:37;7.63;;;4.97;;
35225;SDS011;21813;49.686;21.766;2023-11-21T08:25:03;4.90;;;4.40;;
35225;SDS011;21813;49.686;21.766;2023-11-21T08:27:29;9.30;;;5.40;;
35225;SDS011;21813;49.686;21.766;2023-11-21T08:29:57;10.55;;;5.40;;
35225;SDS011;21813;49.686;21.766;2023-11-21T08:32:23;7.78;;;5.90;;
35225;SDS011;21813;49.686;21.766;2023-11-21T08:34:51;8.35;;;5.75;;
35225;SDS011;21813;49.686;21.766;2023-11-21T08:37:19;12.52;;;7.20;;
35225;SDS011;21813;49.686;21.766;2023-11-21T08:39:47;13.95;;;8.40;;
35225;SDS011;21813;49.686;21.766;2023-11-21T08:42:18;13.10;;;7.68;;
35225;SDS011;21813;49.686;21.766;2023-11-21T08:44:45;11.57;;;7.90;;
35225;SDS011;21813;49.686;21.766;2023-11-21T08:57:00;9.00;;;6.55;;
35225;SDS011;21813;49.686;21.766;2023-11-21T08:59:27;14.73;;;7.82;;
35225;SDS011;21813;49.686;21.766;2023-11-21T09:01:52;11.48;;;6.93;;
35225;SDS011;21813;49.686;21.766;2023-11-21T09:04:18;11.27;;;7.38;;
35225;SDS011;21813;49.686;21.766;2023-11-21T09:06:44;10.43;;;7.43;;
35225;SDS011;21813;49.686;21.766;2023-11-21T09:09:10;12.23;;;7.53;;
35225;SDS011;21813;49.686;21.766;2023-11-21T09:11:36;13.20;;;7.13;;
35225;SDS011;21813;49.686;21.766;2023-11-21T09:14:03;9.30;;;6.53;;
35225;SDS011;21813;49.686;21.766;2023-11-21T09:16:29;10.90;;;6.80;;
35225;SDS011;21813;49.686;21.766;2023-11-21T09:18:55;10.90;;;7.28;;
35225;SDS011;21813;49.686;21.766;2023-11-21T09:21:21;14.95;;;8.05;;
35225;SDS011;21813;49.686;21.766;2023-11-21T09:23:48;10.93;;;6.82;;
35225;SDS011;21813;49.686;21.766;2023-11-21T09:26:13;11.82;;;7.13;;
35225;SDS011;21813;49.686;21.766;2023-11-21T09:28:43;11.38;;;7.55;;
35225;SDS011;21813;49.686;21.766;2023-11-21T09:31:13;10.18;;;7.30;;
35225;SDS011;21813;49.686;21.766;2023-11-21T09:33:43;12.40;;;7.70;;
35225;SDS011;21813;49.686;21.766;2023-11-21T09:36:15;11.68;;;7.47;;
35225;SDS011;21813;49.686;21.766;2023-11-21T09:38:46;9.55;;;7.57;;
35225;SDS011;21813;49.686;21.766;2023-11-21T09:41:21;9.32;;;6.50;;
35225;SDS011;21813;49.686;21.766;2023-11-21T09:43:57;9.65;;;6.72;;
35225;SDS011;21813;49.686;21.766;2023-11-21T09:46:26;11.15;;;6.30;;
35225;SDS011;21813;49.686;21.766;2023-11-21T09:48:53;7.93;;;6.50;;
35225;SDS011;21813;49.686;21.766;2023-11-21T09:51:21;13.70;;;8.73;;
35225;SDS011;21813;49.686;21.766;2023-11-21T09:53:55;9.25;;;6.97;;
35225;SDS011;21813;49.686;21.766;2023-11-21T09:56:23;11.68;;;7.15;;
35225;SDS011;21813;49.686;21.766;2023-11-21T09:58:53;11.10;;;7.55;;
35225;SDS011;21813;49.686;21.766;2023-11-21T10:01:19;12.38;;;8.48;;
35225;SDS011;21813;49.686;21.766;2023-11-21T10:03:48;14.75;;;9.73;;
35225;SDS011;21813;49.686;21.766;2023-11-21T10:06:13;15.82;;;10.32;;
35225;SDS011;21813;49.686;21.766;2023-11-21T10:08:42;12.77;;;8.93;;
35225;SDS011;21813;49.686;21.766;2023-11-21T10:11:08;11.00;;;7.75;;
35225;SDS011;21813;49.686;21.766;2023-11-21T10:13:38;10.52;;;6.38;;
35225;SDS011;21813;49.686;21.766;2023-11-21T10:16:05;10.25;;;5.65;;
35225;SDS011;21813;49.686;21.766;2023-11-21T10:18:38;8.57;;;5.95;;
35225;SDS011;21813;49.686;21.766;2023-11-21T10:21:06;10.93;;;6.80;;
35225;SDS011;21813;49.686;21.766;2023-11-21T10:23:35;8.85;;;6.57;;
35225;SDS011;21813;49.686;21.766;2023-11-21T10:26:01;8.85;;;7.03;;
35225;SDS011;21813;49.686;21.766;2023-11-21T10:28:29;10.63;;;7.53;;
35225;SDS011;21813;49.686;21.766;2023-11-21T10:30:55;11.52;;;8.15;;
35225;SDS011;21813;49.686;21.766;2023-11-21T10:33:26;11.23;;;7.15;;
35225;SDS011;21813;49.686;21.766;2023-11-21T10:35:54;11.55;;;8.52;;
35225;SDS011;21813;49.686;21.766;2023-11-21T10:38:20;11.77;;;7.97;;
35225;SDS011;21813;49.686;21.766;2023-11-21T10:40:48;11.68;;;8.02;;
35225;SDS011;21813;49.686;21.766;2023-11-21T10:43:33;15.15;;;8.23;;
35225;SDS011;21813;49.686;21.766;2023-11-21T10:46:04;15.52;;;7.90;;
35225;SDS011;21813;49.686;21.766;2023-11-21T10:48:33;14.20;;;7.97;;
35225;SDS011;21813;49.686;21.766;2023-11-21T10:51:01;14.30;;;8.02;;
35225;SDS011;21813;49.686;21.766;2023-11-21T10:53:33;13.57;;;8.23;;
35225;SDS011;21813;49.686;21.766;2023-11-21T10:56:02;14.55;;;8.25;;
35225;SDS011;21813;49.686;21.766;2023-11-21T10:58:32;18.95;;;8.13;;
35225;SDS011;21813;49.686;21.766;2023-11-21T11:01:00;17.83;;;8.65;;
35225;SDS011;21813;49.686;21.766;2023-11-21T11:03:30;15.70;;;9.23;;
35225;SDS011;21813;49.686;21.766;2023-11-21T11:06:02;15.38;;;8.52;;
35225;SDS011;21813;49.686;21.766;2023-11-21T11:08:30;16.40;;;8.52;;
35225;SDS011;21813;49.686;21.766;2023-11-21T11:10:57;15.82;;;9.52;;
35225;SDS011;21813;49.686;21.766;2023-11-21T11:13:25;12.45;;;8.32;;
35225;SDS011;21813;49.686;21.766;2023-11-21T11:15:51;14.57;;;8.60;;
35225;SDS011;21813;49.686;21.766;2023-11-21T11:18:28;15.02;;;8.90;;
35225;SDS011;21813;49.686;21.766;2023-11-21T11:20:56;14.13;;;8.70;;
35225;SDS011;21813;49.686;21.766;2023-11-21T11:23:44;14.25;;;8.23;;
35225;SDS011;21813;49.686;21.766;2023-11-21T11:26:24;17.02;;;8.68;;
35225;SDS011;21813;49.686;21.766;2023-11-21T11:37:49;9.38;;;6.43;;
35225;SDS011;21813;49.686;21.766;2023-11-21T11:40:18;9.55;;;5.35;;
35225;SDS011;21813;49.686;21.766;2023-11-21T11:42:57;8.13;;;5.20;;
35225;SDS011;21813;49.686;21.766;2023-11-21T11:45:26;9.00;;;5.55;;
35225;SDS011;21813;49.686;21.766;2023-11-21T11:48:01;7.65;;;5.68;;
35225;SDS011;21813;49.686;21.766;2023-11-21T11:50:32;7.90;;;5.32;;
35225;SDS011;21813;49.686;21.766;2023-11-21T11:53:11;8.18;;;5.20;;
35225;SDS011;21813;49.686;21.766;2023-11-21T11:55:40;8.90;;;5.32;;
35225;SDS011;21813;49.686;21.766;2023-11-21T11:58:09;8.82;;;5.93;;
35225;SDS011;21813;49.686;21.766;2023-11-21T12:00:37;12.40;;;7.35;;
35225;SDS011;21813;49.686;21.766;2023-11-21T12:03:05;10.35;;;7.28;;
35225;SDS011;21813;49.686;21.766;2023-11-21T12:05:35;12.23;;;7.75;;
35225;SDS011;21813;49.686;21.766;2023-11-21T12:08:04;12.95;;;8.18;;
35225;SDS011;21813;49.686;21.766;2023-11-21T12:10:35;13.83;;;7.23;;
35225;SDS011;21813;49.686;21.766;2023-11-21T12:13:05;10.45;;;6.95;;
35225;SDS011;21813;49.686;21.766;2023-11-21T12:15:38;10.82;;;7.68;;
35225;SDS011;21813;49.686;21.766;2023-11-21T12:18:06;10.27;;;7.70;;
35225;SDS011;21813;49.686;21.766;2023-11-21T12:20:33;12.52;;;7.50;;
35225;SDS011;21813;49.686;21.766;2023-11-21T12:23:04;10.18;;;7.28;;
35225;SDS011;21813;49.686;21.766;2023-11-21T12:25:31;9.88;;;7.30;;
35225;SDS011;21813;49.686;21.766;2023-11-21T12:27:59;9.50;;;6.63;;
35225;SDS011;21813;49.686;21.766;2023-11-21T12:30:26;10.65;;;7.75;;
35225;SDS011;21813;49.686;21.766;2023-11-21T12:32:56;13.65;;;7.93;;
35225;SDS011;21813;49.686;21.766;2023-11-21T12:35:24;9.80;;;7.00;;
35225;SDS011;21813;49.686;21.766;2023-11-21T12:37:57;12.25;;;6.78;;
35225;SDS011;21813;49.686;21.766;2023-11-21T12:40:22;11.30;;;7.32;;
35225;SDS011;21813;49.686;21.766;2023-11-21T12:42:51;9.60;;;6.45;;
35225;SDS011;21813;49.686;21.766;2023-11-21T12:45:19;12.30;;;7.05;;
35225;SDS011;21813;49.686;21.766;2023-11-21T12:47:59;12.85;;;7.63;;
35225;SDS011;21813;49.686;21.766;2023-11-21T12:50:31;12.05;;;7.32;;
35225;SDS011;21813;49.686;21.766;2023-11-21T12:53:04;9.30;;;7.40;;
35225;SDS011;21813;49.686;21.766;2023-11-21T12:55:34;9.50;;;7.30;;
35225;SDS011;21813;49.686;21.766;2023-11-21T12:58:05;12.48;;;7.53;;
35225;SDS011;21813;49.686;21.766;2023-11-21T13:00:39;9.10;;;7.18;;
35225;SDS011;21813;49.686;21.766;2023-11-21T13:03:11;9.10;;;6.75;;
35225;SDS011;21813;49.686;21.766;2023-11-21T13:05:53;12.02;;;5.90;;
35225;SDS011;21813;49.686;21.766;2023-11-21T13:08:25;13.20;;;6.43;;
35225;SDS011;21813;49.686;21.766;2023-11-21T13:10:52;7.78;;;5.70;;
35225;SDS011;21813;49.686;21.766;2023-11-21T13:13:23;7.68;;;5.05;;
35225;SDS011;21813;49.686;21.766;2023-11-21T13:15:51;9.32;;;5.07;;
35225;SDS011;21813;49.686;21.766;2023-11-21T13:18:20;8.27;;;4.82;;
35225;SDS011;21813;49.686;21.766;2023-11-21T13:20:47;6.32;;;4.03;;
35225;SDS011;21813;49.686;21.766;2023-11-21T13:23:14;6.28;;;4.40;;
35225;SDS011;21813;49.686;21.766;2023-11-21T13:25:41;7.00;;;5.13;;
35225;SDS011;21813;49.686;21.766;2023-11-21T13:28:08;5.63;;;4.18;;
35225;SDS011;21813;49.686;21.766;2023-11-21T13:30:37;5.63;;;4.55;;
35225;SDS011;21813;49.686;21.766;2023-11-21T13:33:11;6.03;;;4.50;;
35225;SDS011;21813;49.686;21.766;2023-11-21T13:35:43;6.57;;;4.80;;
35225;SDS011;21813;49.686;21.766;2023-11-21T13:38:15;8.88;;;5.78;;
35225;SDS011;21813;49.686;21.766;2023-11-21T13:40:46;11.23;;;7.05;;
35225;SDS011;21813;49.686;21.766;2023-11-21T13:43:24;13.93;;;6.65;;
35225;SDS011;21813;49.686;21.766;2023-11-21T13:45:51;11.45;;;6.63;;
35225;SDS011;21813;49.686;21.766;2023-11-21T13:48:43;11.77;;;6.32;;
35225;SDS011;21813;49.686;21.766;2023-11-21T13:51:15;12.70;;;6.35;;
35225;SDS011;21813;49.686;21.766;2023-11-21T13:53:46;11.68;;;7.30;;
35225;SDS011;21813;49.686;21.766;2023-11-21T13:56:17;9.13;;;7.05;;
35225;SDS011;21813;49.686;21.766;2023-11-21T13:58:50;13.32;;;8.45;;
35225;SDS011;21813;49.686;21.766;2023-11-21T14:01:17;12.88;;;8.55;;
35225;SDS011;21813;49.686;21.766;2023-11-21T14:04:00;14.60;;;8.43;;
35225;SDS011;21813;49.686;21.766;2023-11-21T14:06:42;19.33;;;11.85;;
35225;SDS011;21813;49.686;21.766;2023-11-21T14:09:16;22.88;;;13.23;;
35225;SDS011;21813;49.686;21.766;2023-11-21T14:12:01;20.90;;;13.35;;
35225;SDS011;21813;49.686;21.766;2023-11-21T14:14:33;23.35;;;14.75;;
35225;SDS011;21813;49.686;21.766;2023-11-21T14:16:59;21.63;;;15.00;;
35225;SDS011;21813;49.686;21.766;2023-11-21T14:19:27;20.63;;;13.88;;
35225;SDS011;21813;49.686;21.766;2023-11-21T14:21:57;31.67;;;15.70;;
35225;SDS011;21813;49.686;21.766;2023-11-21T14:24:23;24.50;;;15.75;;
35225;SDS011;21813;49.686;21.766;2023-11-21T14:26:51;26.63;;;17.45;;
35225;SDS011;21813;49.686;21.766;2023-11-21T14:29:17;27.27;;;16.83;;
35225;SDS011;21813;49.686;21.766;2023-11-21T14:31:51;29.25;;;17.50;;
35225;SDS011;21813;49.686;21.766;2023-11-21T14:34:21;28.40;;;17.50;;
35225;SDS011;21813;49.686;21.766;2023-11-21T14:36:47;30.23;;;18.63;;
35225;SDS011;21813;49.686;21.766;2023-11-21T14:39:16;27.58;;;18.65;;
35225;SDS011;21813;49.686;21.766;2023-11-21T14:41:55;44.85;;;24.73;;
35225;SDS011;21813;49.686;21.766;2023-11-21T14:44:27;41.70;;;23.77;;
35225;SDS011;21813;49.686;21.766;2023-11-21T14:46:57;33.83;;;19.45;;
35225;SDS011;21813;49.686;21.766;2023-11-21T14:49:26;35.83;;;20.30;;
35225;SDS011;21813;49.686;21.766;2023-11-21T14:51:56;35.47;;;22.10;;
35225;SDS011;21813;49.686;21.766;2023-11-21T14:54:43;35.28;;;21.33;;
35225;SDS011;21813;49.686;21.766;2023-11-21T14:57:12;34.40;;;21.30;;
35225;SDS011;21813;49.686;21.766;2023-11-21T14:59:47;38.55;;;21.70;;
35225;SDS011;21813;49.686;21.766;2023-11-21T15:02:23;35.92;;;20.63;;
35225;SDS011;21813;49.686;21.766;2023-11-21T15:05:11;33.72;;;20.88;;
35225;SDS011;21813;49.686;21.766;2023-11-21T15:07:41;35.28;;;21.58;;
35225;SDS011;21813;49.686;21.766;2023-11-21T15:10:07;38.80;;;22.42;;
35225;SDS011;21813;49.686;21.766;2023-11-21T15:12:39;39.00;;;23.35;;
35225;SDS011;21813;49.686;21.766;2023-11-21T15:15:07;35.10;;;20.65;;
35225;SDS011;21813;49.686;21.766;2023-11-21T15:17:35;36.42;;;22.08;;
35225;SDS011;21813;49.686;21.766;2023-11-21T15:20:03;37.75;;;22.77;;
35225;SDS011;21813;49.686;21.766;2023-11-21T15:22:32;36.55;;;22.00;;
35225;SDS011;21813;49.686;21.766;2023-11-21T15:24:59;33.42;;;21.52;;
35225;SDS011;21813;49.686;21.766;2023-11-21T15:27:33;36.13;;;23.13;;
35225;SDS011;21813;49.686;21.766;2023-11-21T15:30:02;33.55;;;21.75;;
35225;SDS011;21813;49.686;21.766;2023-11-21T15:32:44;31.08;;;20.70;;
35225;SDS011;21813;49.686;21.766;2023-11-21T15:35:11;30.20;;;18.88;;
35225;SDS011;21813;49.686;21.766;2023-11-21T15:37:42;27.50;;;17.77;;
35225;SDS011;21813;49.686;21.766;2023-11-21T15:40:17;26.92;;;16.40;;
35225;SDS011;21813;49.686;21.766;2023-11-21T15:42:43;27.55;;;17.00;;
35225;SDS011;21813;49.686;21.766;2023-11-21T15:45:10;27.95;;;17.17;;
35225;SDS011;21813;49.686;21.766;2023-11-21T15:47:36;28.23;;;17.02;;
35225;SDS011;21813;49.686;21.766;2023-11-21T15:50:02;28.60;;;16.80;;
35225;SDS011;21813;49.686;21.766;2023-11-21T15:52:32;28.08;;;17.13;;
35225;SDS011;21813;49.686;21.766;2023-11-21T15:55:04;27.73;;;16.65;;
35225;SDS011;21813;49.686;21.766;2023-11-21T15:57:32;27.42;;;17.98;;
35225;SDS011;21813;49.686;21.766;2023-11-21T15:59:59;25.92;;;16.38;;
35225;SDS011;21813;49.686;21.766;2023-11-21T16:02:25;27.27;;;16.08;;
35225;SDS011;21813;49.686;21.766;2023-11-21T16:08:32;24.25;;;16.88;;
35225;SDS011;21813;49.686;21.766;2023-11-21T16:11:10;24.98;;;16.55;;
35225;SDS011;21813;49.686;21.766;2023-11-21T16:13:36;27.10;;;18.70;;
35225;SDS011;21813;49.686;21.766;2023-11-21T16:16:13;29.27;;;18.98;;
35225;SDS011;21813;49.686;21.766;2023-11-21T16:18:45;32.63;;;20.08;;
35225;SDS011;21813;49.686;21.766;2023-11-21T16:21:18;26.80;;;18.13;;
35225;SDS011;21813;49.686;21.766;2023-11-21T16:23:45;29.08;;;19.33;;
35225;SDS011;21813;49.686;21.766;2023-11-21T16:26:19;28.70;;;19.02;;
35225;SDS011;21813;49.686;21.766;2023-11-21T16:28:48;32.97;;;18.73;;
35225;SDS011;21813;49.686;21.766;2023-11-21T16:31:21;31.10;;;18.98;;
35225;SDS011;21813;49.686;21.766;2023-11-21T16:33:47;32.80;;;20.38;;
35225;SDS011;21813;49.686;21.766;2023-11-21T16:36:13;37.55;;;23.92;;
35225;SDS011;21813;49.686;21.766;2023-11-21T16:38:39;35.22;;;22.90;;
35225;SDS011;21813;49.686;21.766;2023-11-21T16:41:05;28.92;;;19.73;;
35225;SDS011;21813;49.686;21.766;2023-11-21T16:43:42;28.63;;;19.23;;
35225;SDS011;21813;49.686;21.766;2023-11-21T16:46:30;33.22;;;20.70;;
35225;SDS011;21813;49.686;21.766;2023-11-21T16:48:59;34.30;;;22.45;;
35225;SDS011;21813;49.686;21.766;2023-11-21T16:51:27;36.30;;;23.70;;
35225;SDS011;21813;49.686;21.766;2023-11-21T16:53:55;37.88;;;23.63;;
35225;SDS011;21813;49.686;21.766;2023-11-21T17:02:58;39.10;;;23.83;;
35225;SDS011;21813;49.686;21.766;2023-11-21T17:11:33;44.78;;;25.70;;
35225;SDS011;21813;49.686;21.766;2023-11-21T17:18:56;32.33;;;18.90;;